createdAt,value
2022-12-15T04:05:27.486Z,-5.46
2022-12-15T04:08:37.056Z,-5.45
2022-12-15T04:11:46.519Z,-5.46
2022-12-15T04:14:55.949Z,-5.53
2022-12-15T04:18:09.620Z,-5.57
2022-12-15T04:21:20.405Z,-5.57
2022-12-15T04:24:40.949Z,-5.54
2022-12-15T04:28:01.931Z,-5.51
2022-12-15T04:31:24.322Z,-5.46
2022-12-15T04:34:44.885Z,-5.46
2022-12-15T04:38:07.389Z,-5.47
2022-12-15T04:41:29.889Z,-5.48
2022-12-15T04:44:50.604Z,-5.54
2022-12-15T04:48:11.432Z,-5.62
2022-12-15T04:51:31.950Z,-5.61
2022-12-15T04:54:53.705Z,-5.56
2022-12-15T04:58:18.841Z,-5.59
2022-12-15T05:01:39.504Z,-5.69
2022-12-15T05:05:00.127Z,-5.78
2022-12-15T05:08:20.617Z,-5.75
2022-12-15T05:11:42.611Z,-5.73
2022-12-15T05:15:03.099Z,-5.72
2022-12-15T05:18:23.593Z,-5.73
2022-12-15T05:21:44.382Z,-5.69
2022-12-15T05:25:04.913Z,-5.69
2022-12-15T05:28:26.640Z,-5.63
2022-12-15T05:31:47.394Z,-5.64
2022-12-15T05:34:56.798Z,-5.65
2022-12-15T05:38:06.683Z,-5.63
2022-12-15T05:41:16.278Z,-5.61
2022-12-15T05:44:27.667Z,-5.58
2022-12-15T05:47:37.112Z,-5.55
2022-12-15T05:50:46.584Z,-5.52
2022-12-15T05:53:56.043Z,-5.52
2022-12-15T05:57:05.587Z,-5.45
2022-12-15T06:00:16.749Z,-5.41
2022-12-15T06:42:07.257Z,-4.92
2022-12-15T06:45:16.805Z,-4.94
2022-12-15T06:48:27.289Z,-4.88
2022-12-15T06:51:36.875Z,-4.80
2022-12-15T06:54:46.265Z,-4.74
2022-12-15T06:57:57.126Z,-4.66
2022-12-15T07:01:07.916Z,-4.69
2022-12-15T07:04:18.639Z,-4.69
2022-12-15T07:07:28.538Z,-4.65
2022-12-15T07:10:40.069Z,-4.60
2022-12-15T07:13:51.493Z,-4.59
2022-12-15T07:17:00.983Z,-4.57
2022-12-15T07:20:11.387Z,-4.50
2022-12-15T07:23:39.714Z,-4.39
2022-12-15T07:26:50.498Z,-4.32
2022-12-15T07:30:01.737Z,-4.22
2022-12-15T07:33:11.196Z,-4.18
2022-12-15T07:36:21.457Z,-4.12
2022-12-15T07:39:31.292Z,-4.08
2022-12-15T07:42:40.887Z,-4.04
2022-12-15T07:45:54.959Z,-3.96
2022-12-15T07:49:04.434Z,-3.91
2022-12-15T07:52:14.433Z,-3.91
2022-12-15T07:55:50.165Z,-3.91
2022-12-15T07:58:54.920Z,-3.82
2022-12-15T08:02:06.247Z,-3.78
2022-12-15T08:05:15.979Z,-3.77
2022-12-15T08:08:25.511Z,-3.73
2022-12-15T08:11:35.432Z,-3.66
2022-12-15T08:14:44.930Z,-3.55
2022-12-15T08:18:01.050Z,-3.54
2022-12-15T08:21:11.639Z,-3.45
2022-12-15T08:24:21.035Z,-3.31
2022-12-15T08:27:30.669Z,-3.19
2022-12-15T08:30:40.957Z,-3.13
2022-12-15T08:33:51.878Z,-3.21
2022-12-15T08:37:01.892Z,-3.20
2022-12-15T08:40:12.010Z,-3.38
2022-12-15T08:43:21.479Z,-3.40
2022-12-15T08:46:33.659Z,-3.58
2022-12-15T08:49:44.576Z,-3.72
2022-12-15T08:53:21.517Z,-3.71
2022-12-15T08:56:25.326Z,-3.71
2022-12-15T08:59:34.783Z,-3.61
2022-12-15T09:02:44.420Z,-3.60
2022-12-15T09:05:56.372Z,-3.61
2022-12-15T09:09:08.934Z,-3.55
2022-12-15T09:12:18.342Z,-3.56
2022-12-15T09:15:59.802Z,-3.56
2022-12-15T09:19:00.287Z,-3.46
2022-12-15T09:22:10.993Z,-3.45
2022-12-15T09:25:20.626Z,-3.45
2022-12-15T09:28:31.947Z,-3.26
2022-12-15T09:31:44.441Z,-3.28
2022-12-15T09:34:54.851Z,-3.28
2022-12-15T09:38:05.654Z,-3.12
2022-12-15T09:41:22.812Z,-2.93
2022-12-15T09:44:33.752Z,-2.78
2022-12-15T09:47:50.351Z,-2.67
2022-12-15T09:51:02.357Z,-2.54
2022-12-15T09:54:13.186Z,-2.42
2022-12-15T09:57:32.485Z,-2.60
2022-12-15T10:00:52.196Z,-2.66
2022-12-15T10:04:08.300Z,-2.90
2022-12-15T10:07:26.493Z,-2.88
2022-12-15T10:10:43.781Z,-2.92
2022-12-15T10:14:00.883Z,-2.71
2022-12-15T10:17:23.428Z,-2.60
2022-12-15T10:20:33.804Z,-2.71
2022-12-15T10:23:43.327Z,-2.84
2022-12-15T10:27:03.741Z,-2.98
2022-12-15T10:30:14.608Z,-2.92
2022-12-15T10:33:26.899Z,-2.99
2022-12-15T10:36:36.347Z,-3.06
2022-12-15T10:39:50.313Z,-3.10
2022-12-15T10:43:01.345Z,-2.90
2022-12-15T10:46:15.229Z,-2.96
2022-12-15T10:49:25.791Z,-2.91
2022-12-15T10:52:37.470Z,-2.78
2022-12-15T10:55:49.803Z,-2.98
2022-12-15T10:59:04.269Z,-2.91
2022-12-15T11:02:29.690Z,-3.04
2022-12-15T11:05:39.375Z,-3.18
2022-12-15T11:08:50.776Z,-2.89
2022-12-15T11:12:12.600Z,-2.82
2022-12-15T11:15:40.275Z,-2.94
2022-12-15T11:18:54.600Z,-3.07
2022-12-15T11:22:10.834Z,-3.32
2022-12-15T11:25:27.233Z,-3.54
2022-12-15T11:28:48.213Z,-3.53
2022-12-15T11:32:06.471Z,-3.57
2022-12-15T11:35:21.711Z,-3.48
2022-12-15T11:38:36.211Z,-3.50
2022-12-15T11:41:55.441Z,-3.57
2022-12-15T11:45:18.832Z,-3.60
2022-12-15T11:48:36.597Z,-3.55
2022-12-15T11:51:56.690Z,-3.61
2022-12-15T11:55:18.373Z,-3.49
2022-12-15T11:58:45.782Z,-3.62
2022-12-15T12:02:12.461Z,-3.55
2022-12-15T12:05:36.958Z,-3.49
2022-12-15T12:08:57.174Z,-3.71
2022-12-15T12:12:16.594Z,-3.66
2022-12-15T12:15:31.700Z,-3.77
2022-12-15T12:18:50.467Z,-3.94
2022-12-15T12:22:10.186Z,-3.95
2022-12-15T12:25:22.559Z,-3.95
2022-12-15T12:28:40.582Z,-3.88
2022-12-15T12:32:04.447Z,-3.85
2022-12-15T12:35:31.431Z,-3.97
2022-12-15T12:38:50.533Z,-4.03
2022-12-15T12:42:10.292Z,-3.92
2022-12-15T12:45:22.101Z,-3.61
2022-12-15T12:48:36.287Z,-3.23
2022-12-15T12:51:52.498Z,-3.10
2022-12-15T12:55:11.106Z,-3.32
2022-12-15T12:58:34.360Z,-3.34
2022-12-15T13:01:44.037Z,-3.41
2022-12-15T13:05:04.330Z,-3.31
2022-12-15T13:08:45.697Z,-3.20
2022-12-15T13:12:20.916Z,-2.97
2022-12-15T13:15:38.469Z,-2.88
2022-12-15T13:18:57.525Z,-2.99
2022-12-15T13:22:24.577Z,-2.88
2022-12-15T13:25:37.666Z,-2.79
2022-12-15T13:28:53.634Z,-2.76
2022-12-15T13:32:03.822Z,-2.56
2022-12-15T13:35:23.319Z,-2.63
2022-12-15T13:38:53.561Z,-2.72
2022-12-15T13:42:37.286Z,-2.82
2022-12-15T13:45:52.690Z,-2.94
2022-12-15T13:49:10.534Z,-2.91
2022-12-15T13:53:07.937Z,-2.88
2022-12-15T13:56:06.534Z,-2.98
2022-12-15T13:59:26.559Z,-2.89
2022-12-15T14:02:38.498Z,-2.93
2022-12-15T14:05:51.541Z,-3.08
2022-12-15T14:09:01.110Z,-3.07
2022-12-15T14:12:15.023Z,-3.03
2022-12-15T14:15:28.311Z,-3.07
2022-12-15T14:18:40.712Z,-3.14
2022-12-15T14:21:52.714Z,-3.23
2022-12-15T14:25:14.441Z,-3.27
2022-12-15T14:28:26.956Z,-3.07
2022-12-15T14:31:38.399Z,-2.98
2022-12-15T14:34:50.883Z,-2.90
2022-12-15T14:38:03.878Z,-2.78
2022-12-15T14:41:21.464Z,-2.67
2022-12-15T14:44:39.163Z,-2.60
2022-12-15T14:48:13.640Z,-2.69
2022-12-15T14:51:27.047Z,-2.70
2022-12-15T14:54:39.081Z,-2.86
2022-12-15T14:57:49.233Z,-2.90
2022-12-15T15:01:00.947Z,-2.89
2022-12-15T15:04:24.933Z,-2.91
2022-12-15T15:07:41.224Z,-3.00
2022-12-15T15:10:52.003Z,-3.09
2022-12-15T15:14:06.010Z,-3.15
2022-12-15T15:17:23.915Z,-3.19
2022-12-15T15:20:35.802Z,-3.24
2022-12-15T15:24:00.835Z,-3.34
2022-12-15T15:27:26.811Z,-3.31
2022-12-15T15:30:43.839Z,-3.34
2022-12-15T15:33:54.405Z,-3.39
2022-12-15T15:37:05.757Z,-3.52
2022-12-15T15:40:18.325Z,-3.55
2022-12-15T15:43:29.358Z,-3.46
2022-12-15T15:46:43.399Z,-3.41
2022-12-15T15:49:54.566Z,-3.45
2022-12-15T15:53:05.149Z,-3.45
2022-12-15T15:56:17.839Z,-3.54
2022-12-15T15:59:29.000Z,-3.57
2022-12-15T16:02:39.123Z,-3.52
2022-12-15T16:05:48.896Z,-3.50
2022-12-15T16:08:59.549Z,-3.51
2022-12-15T16:12:22.304Z,-3.49
2022-12-15T16:15:33.154Z,-3.63
2022-12-15T16:18:42.850Z,-3.71
2022-12-15T16:21:53.152Z,-3.74
2022-12-15T16:25:03.390Z,-3.64
2022-12-15T16:28:16.561Z,-3.59
2022-12-15T16:31:34.207Z,-3.57
2022-12-15T16:34:49.772Z,-3.67
2022-12-15T16:37:59.629Z,-3.62
2022-12-15T16:41:16.184Z,-3.69
2022-12-15T16:44:29.169Z,-3.73
2022-12-15T16:47:38.928Z,-3.67
2022-12-15T16:50:52.073Z,-3.63
2022-12-15T16:54:02.043Z,-3.77
2022-12-15T16:57:12.960Z,-3.73
2022-12-15T17:00:26.963Z,-3.67
2022-12-15T17:03:37.349Z,-3.57
2022-12-15T17:06:48.429Z,-3.51
2022-12-15T17:09:58.391Z,-3.48
2022-12-15T17:13:20.885Z,-3.56
2022-12-15T17:16:32.105Z,-3.67
2022-12-15T17:19:57.980Z,-3.72
2022-12-15T17:23:16.606Z,-3.65
2022-12-15T17:26:30.318Z,-3.59
2022-12-15T17:29:41.349Z,-3.59
2022-12-15T17:32:52.213Z,-3.60
2022-12-15T17:36:05.279Z,-3.75
2022-12-15T17:39:23.255Z,-3.87
2022-12-15T17:42:32.913Z,-3.84
2022-12-15T17:45:43.125Z,-3.82
2022-12-15T17:48:54.106Z,-3.86
2022-12-15T17:52:07.345Z,-3.95
2022-12-15T17:55:21.014Z,-3.86
2022-12-15T17:58:30.703Z,-3.83
2022-12-15T18:01:40.610Z,-3.91
2022-12-15T18:04:51.677Z,-3.89
2022-12-15T18:08:05.158Z,-3.82
2022-12-15T18:11:17.750Z,-3.77
2022-12-15T18:14:29.422Z,-3.74
2022-12-15T18:17:50.831Z,-3.69
2022-12-15T18:21:09.624Z,-3.71
2022-12-15T18:24:21.843Z,-3.73
2022-12-15T18:27:32.750Z,-3.72
2022-12-15T18:30:43.723Z,-3.78
2022-12-15T18:34:00.904Z,-3.87
2022-12-15T18:37:18.225Z,-4.06
2022-12-15T18:40:31.602Z,-3.90
2022-12-15T18:43:42.758Z,-3.92
2022-12-15T18:46:53.584Z,-3.87
2022-12-15T18:50:12.086Z,-3.80
2022-12-15T18:53:29.317Z,-3.86
2022-12-15T18:56:40.075Z,-3.95
2022-12-15T18:59:50.935Z,-3.89
2022-12-15T19:03:02.201Z,-3.93
2022-12-15T19:06:25.762Z,-4.10
2022-12-15T19:09:40.056Z,-4.09
2022-12-15T19:12:55.279Z,-4.14
2022-12-15T19:16:17.176Z,-4.15
2022-12-15T19:19:39.041Z,-4.10
2022-12-15T19:22:51.034Z,-4.06
2022-12-15T19:26:03.569Z,-4.19
2022-12-15T19:29:19.514Z,-4.28
2022-12-15T19:32:30.786Z,-4.34
2022-12-15T19:35:45.736Z,-4.29
2022-12-15T19:38:57.577Z,-4.20
2022-12-15T19:42:18.955Z,-4.27
2022-12-15T19:45:32.885Z,-4.17
2022-12-15T19:48:45.934Z,-4.15
2022-12-15T19:51:57.772Z,-4.26
2022-12-15T19:55:11.808Z,-4.35
2022-12-15T19:58:29.397Z,-4.33
2022-12-15T20:01:43.804Z,-4.27
2022-12-15T20:04:54.932Z,-4.29
2022-12-15T20:08:06.549Z,-4.29
2022-12-15T20:11:20.456Z,-4.30
2022-12-15T20:14:34.735Z,-4.23
2022-12-15T20:17:45.753Z,-4.18
2022-12-15T20:20:56.040Z,-4.18
2022-12-15T20:24:09.512Z,-4.16
2022-12-15T20:27:20.722Z,-4.17
2022-12-15T20:30:35.623Z,-4.17
2022-12-15T20:33:47.141Z,-4.22
2022-12-15T20:36:57.226Z,-4.33
2022-12-15T20:40:15.674Z,-4.35
2022-12-15T20:43:27.214Z,-4.40
2022-12-15T20:46:38.319Z,-4.46
2022-12-15T20:49:48.047Z,-4.53
2022-12-15T20:52:57.862Z,-4.61
2022-12-15T20:56:08.389Z,-4.68
2022-12-15T20:59:18.809Z,-4.76
2022-12-15T21:02:30.761Z,-4.82
2022-12-15T21:05:40.520Z,-4.91
2022-12-15T21:08:50.817Z,-4.93
2022-12-15T21:12:04.454Z,-4.98
2022-12-15T21:15:21.542Z,-4.99
2022-12-15T21:22:02.117Z,-5.05
2022-12-15T21:25:20.596Z,-5.11
2022-12-15T21:28:30.731Z,-5.20
2022-12-15T21:31:40.631Z,-5.23
2022-12-15T21:34:51.882Z,-5.24
2022-12-15T21:38:02.081Z,-5.26
2022-12-15T21:41:16.632Z,-5.30
2022-12-15T21:44:26.372Z,-5.38
2022-12-15T21:47:52.038Z,-5.41
2022-12-15T21:51:03.656Z,-5.39
2022-12-15T21:54:19.242Z,-5.39
2022-12-15T21:57:28.969Z,-5.43
2022-12-15T22:00:43.853Z,-5.45
2022-12-15T22:03:57.754Z,-5.45
2022-12-15T22:07:15.291Z,-5.45
2022-12-15T22:10:25.379Z,-5.51
2022-12-15T22:13:35.163Z,-5.55
2022-12-15T22:16:44.911Z,-5.65
2022-12-15T22:19:54.658Z,-5.76
2022-12-15T22:23:05.892Z,-5.89
2022-12-15T22:26:21.742Z,-5.98
2022-12-15T22:29:31.705Z,-5.98
2022-12-15T22:32:41.350Z,-5.90
2022-12-15T22:35:52.079Z,-5.90
2022-12-15T22:39:08.189Z,-5.95
2022-12-15T22:42:18.282Z,-6.05
2022-12-15T22:45:28.166Z,-6.14
2022-12-15T22:48:41.522Z,-6.18
2022-12-15T22:51:51.458Z,-6.29
2022-12-15T22:55:02.570Z,-6.32
2022-12-15T22:58:17.132Z,-6.32
2022-12-15T23:01:27.796Z,-6.40
2022-12-15T23:04:37.732Z,-6.50
2022-12-15T23:07:47.616Z,-6.54
2022-12-15T23:11:09.900Z,-6.54
2022-12-15T23:14:39.910Z,-6.56
2022-12-15T23:17:49.577Z,-6.63
2022-12-15T23:21:00.326Z,-6.68
2022-12-15T23:24:09.996Z,-6.75
2022-12-15T23:27:21.001Z,-6.78
2022-12-15T23:30:30.742Z,-6.77
2022-12-15T23:33:41.092Z,-6.85
2022-12-15T23:36:50.732Z,-6.91
2022-12-15T23:40:00.469Z,-6.83
2022-12-15T23:43:12.423Z,-6.82
2022-12-15T23:46:22.389Z,-6.89
2022-12-15T23:49:32.212Z,-6.96
2022-12-15T23:52:41.899Z,-6.97
2022-12-15T23:55:51.813Z,-7.02
2022-12-15T23:59:02.739Z,-7.05
